Terminal Aerodrome Forecast
Issued by NWS

Home | Current Version | Previous Version | Text Only | Print | Product List | Glossary On
Versions: 1 2 3 4 5 6 7 8 9 10 11 12 13 14 15 16 17
610
FTUS41 KPBZ 220520
TAFFKL
TAF
KFKL 220520Z 2206/2306 18006KT P6SM BKN250
     FM221700 22014G23KT P6SM VCTS BKN035CB
     FM221900 22014G24KT 5SM -SHRA VCTS OVC025CB
     FM230100 25010KT P6SM BKN050
      AMD LTD TO CLD VIS AND WIND=

USA.gov is the U.S. government's official web portal to all federal, state and local government web resources and services.